Airfield :







YOU CAN JOIN US ON...

 
LOGIN :

Register | Disclaimer

   EN    FR    IT 

 









Legend :    VFR   Marginal VFR   IFR   Intensive IFR   Very Intensive IFR
Visi :
Ceiling :
>= 8 km
>= 3000ft
5 to 8 km
1000 to 3000 ft
1500m to 5 km
500 to 1000 ft
800 to 1500m
200 to 500 ft
< 800m
< 200 ft
Symbols :   Thunderstorms  Fog  Heavy snow  Heavy precipitations  Wind > 20 kt







- Airport Elevation : 40 ft
- IATA code : YRF


CYCA - Cartwright

CURRENT METAR :
  • 160100Z AUTO 01006KT 350V100 5/8SM -RA BR VV002 08/08 A2974 RMK SLP073

EXPIRED METARs :
  • 160000Z AUTO 36004KT 320V020 3/8SM -RA FG VV003 09/09 A2974 RMK PCPN 0.5MM PAST HR SLP071
  • 152344Z AUTO 35006KT 1/2SM -RA FG BKN004 OVC008 09/09 A2973 RMK SLP070
  • 152335Z AUTO 35004KT 1/2SM -RA FG BKN007 OVC016 10/10 A2973 RMK SLP070
  • 152324Z AUTO 02003KT 1/2SM -RA FG BKN009 OVC016 10/10 A2973 RMK SLP070
  • 152300Z AUTO 03003KT 1/2SM -RA FG OVC016 10/10 A2973 RMK SLP069

TAF TAF CYCA
Valid from the 16 at 02:00 until the 16 at 14:00 UTC


160138Z 1602/1614 01007KT 1/2SM FG BKN004 OVC008
TEMPO 1602/1614 2SM -RA BR OVC008
BECMG 1608/1610 36012G22KT RMK FCST BASED ON AUTO OBS. NXT FCST BY 160800Z
No reported NOTAMs for that airfield.



MET'MAP, your aeronautical weather chart ! - Copyright ORBIFLY December 2007 - Disclaimer

ORBIFLY MET'MAP TEAM :

Programming & Development : Alexandra Zaïnal
Concept & Development : Baudouin d'Aumeries
Co-Development & Prog : Marc-Olivier Méhu
Technical & hardware support : Manuel Goepfert

Contact : metmap@orbifly.com




SOURCES & CREDITS :

   NOAA